createdAt,value
2018-07-28T00:00:33.285Z,52.716064
2018-07-28T00:01:49.154Z,52.716064
2018-07-28T00:03:05.068Z,52.716064
2018-07-28T00:04:20.943Z,52.618408
2018-07-28T00:05:36.806Z,52.716064
2018-07-28T00:06:52.714Z,52.813721
2018-07-28T00:08:08.671Z,52.813721
2018-07-28T00:09:24.533Z,52.813721
2018-07-28T00:10:40.443Z,53.015137
2018-07-28T00:11:56.325Z,53.240967
2018-07-28T00:13:12.219Z,53.533936
2018-07-28T00:14:28.143Z,53.735352
2018-07-28T00:15:44.048Z,53.662109
2018-07-28T00:16:59.969Z,53.735352
2018-07-28T00:18:15.815Z,53.735352
2018-07-28T00:19:31.715Z,53.833008
2018-07-28T00:20:47.698Z,53.833008
2018-07-28T00:22:03.584Z,53.833008
2018-07-28T00:23:19.447Z,54.034424
2018-07-28T00:24:36.351Z,54.162598
2018-07-28T00:25:52.231Z,54.455566
2018-07-28T00:27:08.086Z,54.455566
2018-07-28T00:28:23.961Z,54.260254
2018-07-28T00:29:39.853Z,54.559326
2018-07-28T00:30:55.715Z,54.559326
2018-07-28T00:32:11.620Z,54.35791
2018-07-28T00:33:27.493Z,54.162598
2018-07-28T00:34:43.393Z,54.034424
2018-07-28T00:35:59.269Z,54.034424
2018-07-28T00:37:15.136Z,54.35791
2018-07-28T00:38:31.030Z,54.23584
2018-07-28T00:39:46.891Z,54.35791
2018-07-28T00:41:02.773Z,54.455566
2018-07-28T00:42:18.648Z,54.35791
2018-07-28T00:43:34.506Z,54.455566
2018-07-28T00:44:50.410Z,54.35791
2018-07-28T00:46:06.275Z,54.559326
2018-07-28T00:47:22.156Z,54.333496
2018-07-28T00:48:38.042Z,54.455566
2018-07-28T00:49:53.926Z,54.559326
2018-07-28T00:51:09.810Z,54.559326
2018-07-28T00:52:25.651Z,54.785156
2018-07-28T00:53:41.524Z,54.785156
2018-07-28T00:54:57.428Z,54.980469
2018-07-28T00:56:13.301Z,55.084229
2018-07-28T00:57:29.176Z,54.980469
2018-07-28T00:58:45.051Z,55.084229
2018-07-28T01:00:00.944Z,54.754639
2018-07-28T01:01:16.812Z,54.785156
2018-07-28T01:02:32.697Z,54.882812
2018-07-28T01:03:48.572Z,54.882812
2018-07-28T01:05:04.465Z,54.785156
2018-07-28T01:06:20.371Z,55.084229
2018-07-28T01:07:36.274Z,55.181885
2018-07-28T01:08:52.170Z,55.279541
2018-07-28T01:10:08.069Z,55.279541
2018-07-28T01:11:23.982Z,55.383301
2018-07-28T01:12:39.884Z,55.578613
2018-07-28T01:13:56.739Z,55.279541
2018-07-28T01:15:12.627Z,55.279541
2018-07-28T01:16:28.522Z,55.407715
2018-07-28T01:17:44.394Z,55.206299
2018-07-28T01:19:00.254Z,55.108643
2018-07-28T01:20:16.133Z,55.206299
2018-07-28T01:21:32.023Z,55.407715
2018-07-28T01:22:47.963Z,55.206299
2018-07-28T01:24:03.862Z,55.206299
2018-07-28T01:25:19.754Z,55.206299
2018-07-28T01:26:35.668Z,55.310059
2018-07-28T01:27:51.597Z,55.407715
2018-07-28T01:29:07.491Z,55.206299
2018-07-28T01:30:23.402Z,55.310059
2018-07-28T01:31:39.273Z,55.206299
2018-07-28T01:32:55.114Z,55.010986
2018-07-28T01:34:11.005Z,55.010986
2018-07-28T01:35:26.889Z,55.310059
2018-07-28T01:36:42.729Z,55.432129
2018-07-28T01:37:58.597Z,55.432129
2018-07-28T01:39:14.462Z,55.334473
2018-07-28T01:40:30.390Z,55.535889
2018-07-28T01:41:46.275Z,55.206299
2018-07-28T01:43:02.126Z,55.108643
2018-07-28T01:44:18.048Z,55.010986
2018-07-28T01:45:33.910Z,55.108643
2018-07-28T01:46:49.794Z,55.535889
2018-07-28T01:48:05.659Z,55.633545
2018-07-28T01:49:21.570Z,55.407715
2018-07-28T01:50:37.433Z,55.505371
2018-07-28T01:51:53.319Z,55.334473
2018-07-28T01:53:09.237Z,55.432129
2018-07-28T01:54:25.122Z,55.334473
2018-07-28T01:55:41.013Z,55.432129
2018-07-28T01:56:56.888Z,55.334473
2018-07-28T01:58:12.783Z,55.535889
2018-07-28T01:59:28.681Z,55.535889
2018-07-28T02:00:44.580Z,55.859375
2018-07-28T02:02:00.450Z,56.060791
2018-07-28T02:03:16.327Z,56.060791
2018-07-28T02:04:32.209Z,55.859375
2018-07-28T02:05:48.111Z,55.859375
2018-07-28T02:07:04.012Z,55.761719
2018-07-28T02:08:19.882Z,55.657959
2018-07-28T02:09:35.782Z,55.761719
2018-07-28T02:10:51.672Z,55.761719
2018-07-28T02:12:07.530Z,55.859375
2018-07-28T02:13:23.385Z,55.957031
2018-07-28T02:14:39.254Z,55.761719
2018-07-28T02:15:55.133Z,55.859375
2018-07-28T02:17:11.041Z,55.761719
2018-07-28T02:18:26.919Z,55.560303
2018-07-28T02:19:42.790Z,55.462646
2018-07-28T02:20:58.704Z,55.358887
2018-07-28T02:22:14.570Z,55.236816
2018-07-28T02:23:30.416Z,55.560303
2018-07-28T02:24:46.318Z,55.462646
2018-07-28T02:26:02.195Z,55.560303
2018-07-28T02:27:18.080Z,55.657959
2018-07-28T02:28:33.981Z,55.560303
2018-07-28T02:29:49.812Z,55.560303
2018-07-28T02:31:05.685Z,55.859375
2018-07-28T02:32:21.566Z,55.560303
2018-07-28T02:33:37.434Z,55.657959
2018-07-28T02:34:53.307Z,55.957031
2018-07-28T02:36:09.141Z,55.761719
2018-07-28T02:37:25.030Z,55.761719
2018-07-28T02:38:40.904Z,55.859375
2018-07-28T02:39:56.753Z,55.987549
2018-07-28T02:41:12.662Z,56.182861
2018-07-28T02:42:28.540Z,56.585693
2018-07-28T02:43:45.402Z,56.68335
2018-07-28T02:45:01.273Z,56.68335
2018-07-28T02:46:17.177Z,56.811523
2018-07-28T02:47:33.048Z,57.110596
2018-07-28T02:48:48.939Z,57.110596
2018-07-28T02:50:04.794Z,57.537842
2018-07-28T02:51:20.651Z,57.739258
2018-07-28T02:52:36.515Z,57.635498
2018-07-28T02:53:52.374Z,57.409668
2018-07-28T02:55:08.227Z,57.836914
2018-07-28T02:56:24.103Z,57.93457
2018-07-28T02:57:39.995Z,58.36792
2018-07-28T02:58:55.873Z,58.465576
2018-07-28T03:00:11.760Z,58.36792
2018-07-28T03:01:27.599Z,58.03833
2018-07-28T03:02:43.538Z,57.93457
2018-07-28T03:03:59.419Z,57.537842
2018-07-28T03:05:16.271Z,57.537842
2018-07-28T03:06:32.146Z,57.836914
2018-07-28T03:07:48.052Z,57.739258
2018-07-28T03:09:03.899Z,57.739258
2018-07-28T03:10:19.761Z,58.26416
2018-07-28T03:11:35.650Z,58.135986
2018-07-28T03:12:51.536Z,57.93457
2018-07-28T03:14:07.434Z,58.166504
2018-07-28T03:15:23.321Z,58.465576
2018-07-28T03:16:39.189Z,58.563232
2018-07-28T03:17:55.073Z,59.094238
2018-07-28T03:19:10.953Z,59.094238
2018-07-28T03:20:26.846Z,58.990479
2018-07-28T03:21:42.722Z,58.764648
2018-07-28T03:22:58.590Z,58.892822
2018-07-28T03:24:14.485Z,59.295654
2018-07-28T03:25:30.323Z,59.295654
2018-07-28T03:26:46.203Z,58.990479
2018-07-28T03:28:02.052Z,58.764648
2018-07-28T03:29:17.938Z,58.990479
2018-07-28T03:30:33.814Z,59.191895
2018-07-28T03:31:49.686Z,58.892822
2018-07-28T03:33:05.558Z,59.191895
2018-07-28T03:34:21.436Z,60.119629
2018-07-28T03:35:37.299Z,60.247803
2018-07-28T03:36:53.161Z,60.119629
2018-07-28T03:38:09.053Z,60.021973
2018-07-28T03:39:24.946Z,59.820557
2018-07-28T03:40:40.790Z,59.918213
2018-07-28T03:41:56.691Z,60.223389
2018-07-28T03:43:12.608Z,60.223389
2018-07-28T03:44:28.480Z,60.119629
2018-07-28T03:45:44.378Z,60.321045
2018-07-28T03:47:00.228Z,60.321045
2018-07-28T03:48:16.114Z,60.522461
2018-07-28T03:49:32.017Z,60.620117
2018-07-28T03:50:47.903Z,60.522461
2018-07-28T03:52:04.745Z,60.223389
2018-07-28T03:53:20.589Z,60.119629
2018-07-28T03:54:36.533Z,60.021973
2018-07-28T03:55:52.390Z,60.021973
2018-07-28T03:57:08.259Z,60.321045
2018-07-28T03:58:24.171Z,60.223389
2018-07-28T03:59:40.028Z,60.321045
2018-07-28T04:00:55.933Z,60.351562
2018-07-28T04:02:11.836Z,60.980225
2018-07-28T04:03:27.685Z,61.480713
2018-07-28T04:04:43.559Z,61.383057
2018-07-28T04:05:59.422Z,61.383057
2018-07-28T04:07:15.359Z,61.883545
2018-07-28T04:08:31.217Z,61.981201
2018-07-28T04:09:47.098Z,61.883545
2018-07-28T04:11:02.960Z,61.480713
2018-07-28T04:12:18.835Z,60.949707
2018-07-28T04:13:34.703Z,60.418701
2018-07-28T04:14:50.568Z,60.119629
2018-07-28T04:16:06.443Z,60.119629
2018-07-28T04:17:22.295Z,60.449219
2018-07-28T04:18:38.141Z,60.650635
2018-07-28T04:19:54.039Z,60.650635
2018-07-28T04:21:09.906Z,60.223389
2018-07-28T04:22:25.766Z,60.552979
2018-07-28T04:23:41.708Z,60.748291
2018-07-28T04:24:57.620Z,60.949707
2018-07-28T04:26:13.466Z,60.552979
2018-07-28T04:27:29.339Z,60.119629
2018-07-28T04:28:45.223Z,60.021973
2018-07-28T04:30:01.101Z,60.150146
2018-07-28T04:31:16.974Z,60.882568
2018-07-28T04:32:32.842Z,61.077881
2018-07-28T04:33:48.701Z,60.650635
2018-07-28T04:38:05.195Z,60.980225
2018-07-28T04:39:21.032Z,61.181641
2018-07-28T04:40:36.888Z,61.077881
2018-07-28T04:41:52.753Z,61.383057
2018-07-28T04:43:08.612Z,61.383057
2018-07-28T04:44:24.475Z,61.480713
2018-07-28T04:45:40.331Z,61.383057
2018-07-28T04:46:56.209Z,61.151123
2018-07-28T04:48:12.115Z,60.620117
2018-07-28T04:49:27.990Z,60.223389
2018-07-28T04:50:43.868Z,59.790039
2018-07-28T04:51:59.793Z,59.893799
2018-07-28T04:53:15.668Z,60.119629
2018-07-28T04:54:31.525Z,60.321045
2018-07-28T04:55:47.522Z,60.418701
2018-07-28T04:57:03.409Z,60.119629
2018-07-28T04:58:19.292Z,60.522461
2018-07-28T04:59:35.168Z,60.321045
2018-07-28T05:00:51.023Z,60.223389
2018-07-28T05:02:06.918Z,60.223389
2018-07-28T05:03:22.794Z,60.119629
2018-07-28T05:04:38.681Z,59.692383
2018-07-28T05:05:54.542Z,59.893799
2018-07-28T05:07:10.513Z,59.790039
2018-07-28T05:08:26.305Z,59.692383
2018-07-28T05:09:42.191Z,59.790039
2018-07-28T05:10:58.052Z,60.095215
2018-07-28T05:12:13.935Z,59.790039
2018-07-28T05:13:29.794Z,59.564209
2018-07-28T05:14:45.685Z,59.893799
2018-07-28T05:16:01.586Z,60.095215
2018-07-28T05:17:17.444Z,60.192871
2018-07-28T05:18:33.329Z,60.491943
2018-07-28T05:19:49.209Z,60.192871
2018-07-28T05:21:05.100Z,60.192871
2018-07-28T05:22:20.997Z,60.192871
2018-07-28T05:23:36.936Z,60.192871
2018-07-28T05:24:52.781Z,60.723877
2018-07-28T05:26:08.684Z,60.290527
2018-07-28T05:27:24.585Z,59.863281
2018-07-28T05:28:40.480Z,59.661865
2018-07-28T05:29:56.348Z,60.192871
2018-07-28T05:31:12.222Z,61.022949
2018-07-28T05:32:28.082Z,60.992432
2018-07-28T05:33:44.010Z,60.791016
2018-07-28T05:34:59.906Z,60.5896
2018-07-28T05:36:15.835Z,60.693359
2018-07-28T05:37:31.698Z,60.992432
2018-07-28T05:38:47.643Z,61.090088
2018-07-28T05:40:03.535Z,60.894775
2018-07-28T05:41:19.426Z,60.766602
2018-07-28T05:42:35.336Z,60.461426
2018-07-28T05:43:51.247Z,60.461426
2018-07-28T05:45:07.296Z,60.235596
2018-07-28T05:46:23.286Z,59.735107
2018-07-28T05:47:39.176Z,59.533691
2018-07-28T05:48:55.095Z,59.509277
2018-07-28T05:50:11.174Z,59.637451
2018-07-28T05:51:26.983Z,59.509277
2018-07-28T05:52:42.931Z,59.509277
2018-07-28T05:53:58.822Z,59.106445
2018-07-28T05:55:14.768Z,59.106445
2018-07-28T05:56:30.629Z,58.978271
2018-07-28T05:57:46.558Z,58.782959
2018-07-28T05:59:02.451Z,58.380127
2018-07-28T06:00:18.413Z,58.154297
2018-07-28T06:01:34.302Z,57.855225
2018-07-28T06:02:50.293Z,58.056641
2018-07-28T06:04:06.127Z,58.056641
2018-07-28T06:05:22.076Z,58.251953
2018-07-28T06:06:37.957Z,58.850098
2018-07-28T06:07:53.862Z,59.25293
2018-07-28T06:09:09.710Z,59.552002
2018-07-28T06:10:25.604Z,59.051514
2018-07-28T06:11:41.589Z,58.850098
2018-07-28T06:12:57.477Z,58.526611
2018-07-28T06:14:13.469Z,58.026123
2018-07-28T06:15:29.302Z,57.055664
2018-07-28T06:16:45.171Z,57.03125
2018-07-28T06:18:01.055Z,56.829834
2018-07-28T06:19:16.954Z,56.92749
2018-07-28T06:20:32.836Z,57.000732
2018-07-28T06:21:48.752Z,56.604004
2018-07-28T06:23:04.640Z,56.604004
2018-07-28T06:24:20.541Z,56.70166
2018-07-28T06:25:36.419Z,56.402588
2018-07-28T06:26:52.324Z,56.402588
2018-07-28T06:28:09.299Z,56.207275
2018-07-28T06:29:25.165Z,56.628418
2018-07-28T06:30:41.037Z,56.604004
2018-07-28T06:31:57.020Z,56.506348
2018-07-28T06:33:12.906Z,56.103516
2018-07-28T06:34:28.842Z,56.604004
2018-07-28T06:35:44.744Z,56.604004
2018-07-28T06:37:00.678Z,56.80542
2018-07-28T06:38:16.554Z,56.573486
2018-07-28T06:39:32.478Z,56.378174
2018-07-28T06:40:48.343Z,56.079102
2018-07-28T06:42:04.281Z,55.780029
2018-07-28T06:43:20.254Z,55.554199
2018-07-28T06:44:36.167Z,55.456543
2018-07-28T06:45:52.095Z,55.255127
2018-07-28T06:47:08.004Z,55.053711
2018-07-28T06:48:23.935Z,55.456543
2018-07-28T06:49:39.866Z,55.126953
2018-07-28T06:50:55.854Z,54.528809
2018-07-28T06:52:11.851Z,54.632568
2018-07-28T06:53:27.789Z,54.23584
2018-07-28T06:54:43.713Z,54.632568
2018-07-28T06:55:59.679Z,54.754639
2018-07-28T06:57:16.629Z,55.157471
2018-07-28T06:58:32.606Z,54.858398
2018-07-28T06:59:48.402Z,54.858398
2018-07-28T07:01:04.320Z,55.157471
2018-07-28T07:02:20.269Z,54.931641
2018-07-28T07:03:36.266Z,54.827881
2018-07-28T07:04:52.459Z,55.328369
2018-07-28T07:06:08.185Z,55.627441
2018-07-28T07:07:24.153Z,56.048584
2018-07-28T07:08:40.117Z,56.646729
2018-07-28T07:09:56.044Z,57.348633
2018-07-28T07:11:11.950Z,57.446289
2018-07-28T07:12:27.920Z,57.415771
2018-07-28T07:13:43.889Z,57.019043
2018-07-28T07:14:59.889Z,56.921387
2018-07-28T07:16:15.798Z,57.116699
2018-07-28T07:17:31.742Z,56.719971
2018-07-28T07:18:48.690Z,56.921387
2018-07-28T07:20:04.603Z,56.591797
2018-07-28T07:21:20.531Z,56.396484
2018-07-28T07:22:36.506Z,56.793213
2018-07-28T07:23:52.456Z,57.189941
2018-07-28T07:25:08.397Z,57.519531
2018-07-28T07:26:24.352Z,57.818604
2018-07-28T07:27:40.293Z,57.617188
2018-07-28T07:28:56.195Z,58.215332
2018-07-28T07:30:12.113Z,57.91626
2018-07-28T07:31:28.024Z,58.239746
2018-07-28T07:32:43.973Z,58.642578
2018-07-28T07:33:59.879Z,59.039307
2018-07-28T07:35:15.799Z,59.533691
2018-07-28T07:36:31.724Z,59.533691
2018-07-28T07:37:48.755Z,59.436035
2018-07-28T07:39:04.773Z,59.832764
2018-07-28T07:40:21.024Z,60.03418
2018-07-28T07:41:37.022Z,60.430908
2018-07-28T07:42:52.904Z,60.534668
2018-07-28T07:44:08.860Z,60.72998
2018-07-28T07:45:24.780Z,61.358643
2018-07-28T07:46:40.779Z,61.657715
2018-07-28T07:47:56.753Z,61.755371
2018-07-28T07:49:12.776Z,62.255859
2018-07-28T07:50:28.759Z,62.1521
2018-07-28T07:51:44.715Z,62.451172
2018-07-28T07:53:01.814Z,62.95166
2018-07-28T07:54:17.924Z,63.049316
2018-07-28T07:55:33.916Z,63.647461
2018-07-28T07:56:49.876Z,63.677979
2018-07-28T07:58:05.874Z,64.074707
2018-07-28T07:59:21.803Z,64.276123
2018-07-28T08:00:37.739Z,64.575195
2018-07-28T08:01:53.651Z,64.447021
2018-07-28T08:03:09.628Z,61.05957
2018-07-28T08:04:25.529Z,61.090088
2018-07-28T08:05:41.413Z,61.157227
2018-07-28T08:06:57.417Z,61.853027
2018-07-28T08:08:13.324Z,61.05957
2018-07-28T08:09:29.234Z,60.827637
2018-07-28T08:10:45.140Z,60.827637
2018-07-28T08:12:01.028Z,60.333252
2018-07-28T08:13:16.965Z,60.632324
2018-07-28T08:14:32.992Z,60.50415
2018-07-28T08:15:48.956Z,60.107422
2018-07-28T08:17:04.903Z,59.509277
2018-07-28T08:18:20.849Z,59.106445
2018-07-28T08:19:36.768Z,58.880615
2018-07-28T08:20:52.798Z,58.581543
2018-07-28T08:22:08.678Z,58.911133
2018-07-28T08:23:24.603Z,58.709717
2018-07-28T08:24:40.489Z,58.612061
2018-07-28T08:25:56.376Z,58.612061
2018-07-28T08:27:12.314Z,58.709717
2018-07-28T08:28:28.237Z,56.622314
2018-07-28T08:29:44.105Z,55.456543
2018-07-28T08:31:00.070Z,55.755615
2018-07-28T08:32:16.009Z,55.950928
2018-07-28T08:33:31.916Z,56.25
2018-07-28T08:34:47.798Z,55.456543
2018-07-28T08:36:03.744Z,54.754639
2018-07-28T08:37:19.638Z,53.759766
2018-07-28T08:38:35.538Z,53.637695
2018-07-28T08:39:51.600Z,53.240967
2018-07-28T08:41:07.471Z,52.941895
2018-07-28T08:42:23.424Z,52.941895
2018-07-28T08:43:39.348Z,53.265381
2018-07-28T08:44:55.299Z,53.363037
2018-07-28T08:46:11.208Z,53.363037
2018-07-28T08:47:27.164Z,53.460693
2018-07-28T08:48:43.101Z,53.863525
2018-07-28T08:49:58.986Z,53.759766
2018-07-28T08:51:14.909Z,53.533936
2018-07-28T08:52:30.897Z,53.137207
2018-07-28T08:53:46.826Z,53.662109
2018-07-28T08:55:02.724Z,53.265381
2018-07-28T08:56:18.664Z,53.338623
2018-07-28T08:57:34.638Z,53.137207
2018-07-28T08:58:50.528Z,53.137207
2018-07-28T09:00:06.430Z,53.137207
2018-07-28T09:01:22.349Z,53.436279
2018-07-28T09:02:38.278Z,53.338623
2018-07-28T09:03:54.240Z,53.759766
2018-07-28T09:05:10.148Z,54.260254
2018-07-28T09:06:26.105Z,54.858398
2018-07-28T09:07:42.006Z,54.559326
2018-07-28T09:08:58.003Z,54.656982
2018-07-28T09:10:13.940Z,55.053711
2018-07-28T09:11:29.864Z,55.157471
2018-07-28T09:12:45.765Z,56.451416
2018-07-28T09:14:01.732Z,56.378174
2018-07-28T09:15:17.614Z,59.063721
2018-07-28T09:16:33.672Z,56.25
2018-07-28T09:17:49.660Z,55.255127
2018-07-28T09:19:05.605Z,54.559326
2018-07-28T09:20:21.544Z,54.162598
2018-07-28T09:21:37.519Z,54.559326
2018-07-28T09:22:53.499Z,55.853271
2018-07-28T09:24:09.482Z,56.25
2018-07-28T09:25:25.412Z,56.323242
2018-07-28T09:26:41.376Z,55.126953
2018-07-28T09:27:57.295Z,55.126953
2018-07-28T09:29:13.234Z,54.333496
2018-07-28T09:30:29.153Z,55.926514
2018-07-28T09:31:45.281Z,54.858398
2018-07-28T09:33:01.223Z,56.152344
2018-07-28T09:34:17.176Z,58.14209
2018-07-28T09:35:33.106Z,56.750488
2018-07-28T09:36:49.129Z,56.549072
2018-07-28T09:38:05.105Z,57.049561
2018-07-28T09:39:21.049Z,56.524658
2018-07-28T09:40:36.990Z,54.956055
2018-07-28T09:41:52.961Z,55.853271
2018-07-28T09:43:08.879Z,55.426025
2018-07-28T09:46:06.669Z,57.116699
2018-07-28T09:47:22.589Z,57.818604
2018-07-28T09:48:38.570Z,57.714844
2018-07-28T09:49:54.569Z,57.519531
2018-07-28T09:51:10.533Z,58.215332
2018-07-28T09:52:26.429Z,57.543945
2018-07-28T09:53:42.383Z,57.641602
2018-07-28T09:54:58.330Z,57.641602
2018-07-28T09:56:15.372Z,56.750488
2018-07-28T09:57:31.316Z,57.348633
2018-07-28T09:58:47.267Z,55.853271
2018-07-28T10:03:03.699Z,55.651855
2018-07-28T10:04:19.650Z,55.554199
2018-07-28T10:05:35.631Z,55.029297
2018-07-28T10:06:51.602Z,54.333496
2018-07-28T10:08:07.532Z,54.431152
2018-07-28T10:09:23.430Z,54.034424
2018-07-28T10:10:39.364Z,54.754639
2018-07-28T10:11:55.269Z,54.827881
2018-07-28T10:13:11.203Z,54.180908
2018-07-28T10:14:27.118Z,54.083252
2018-07-28T10:15:43.023Z,54.156494
2018-07-28T10:16:58.956Z,54.455566
2018-07-28T10:18:14.978Z,53.55835
2018-07-28T10:19:30.912Z,53.039551
2018-07-28T10:20:46.817Z,53.137207
2018-07-28T10:22:02.784Z,52.960205
2018-07-28T10:23:18.724Z,53.259277
2018-07-28T10:24:34.723Z,53.533936
2018-07-28T10:25:50.585Z,53.234863
2018-07-28T10:27:06.445Z,53.161621
2018-07-28T10:28:22.437Z,53.656006
2018-07-28T10:29:38.354Z,53.857422
2018-07-28T10:30:54.264Z,54.13208
2018-07-28T10:32:10.217Z,53.509521
2018-07-28T10:33:26.187Z,52.416992
2018-07-28T10:34:42.076Z,52.490234
2018-07-28T10:35:58.031Z,52.288818
2018-07-28T10:37:14.027Z,53.308105
2018-07-28T10:38:29.927Z,53.009033
2018-07-28T10:39:45.864Z,53.90625
2018-07-28T10:41:01.759Z,54.101562
2018-07-28T10:42:17.659Z,53.283691
2018-07-28T10:43:33.644Z,52.886963
2018-07-28T10:44:49.535Z,53.509521
2018-07-28T10:46:05.439Z,52.685547
2018-07-28T10:47:21.319Z,50.183105
2018-07-28T10:48:37.250Z,50.976562
2018-07-28T10:49:53.121Z,50.360107
2018-07-28T10:51:09.050Z,49.963379
2018-07-28T10:52:25.027Z,51.049805
2018-07-28T10:53:40.932Z,50.55542
2018-07-28T10:54:56.858Z,50.256348
2018-07-28T10:56:12.801Z,50.256348
2018-07-28T10:57:28.740Z,50.457764
2018-07-28T10:58:44.592Z,50.43335
2018-07-28T11:00:00.533Z,49.713135
2018-07-28T11:01:16.395Z,49.914551
2018-07-28T11:02:32.324Z,49.615479
2018-07-28T11:03:48.256Z,49.591064
2018-07-28T11:05:04.162Z,49.121094
2018-07-28T11:06:20.081Z,49.688721
2018-07-28T11:07:36.005Z,48.651123
2018-07-28T11:08:51.940Z,47.369385
2018-07-28T11:10:07.923Z,48.083496
2018-07-28T11:11:23.920Z,48.083496
2018-07-28T11:12:39.847Z,47.86377
2018-07-28T11:13:55.778Z,47.167969
2018-07-28T11:15:11.724Z,45.172119
2018-07-28T11:16:27.608Z,46.795654
2018-07-28T11:17:43.576Z,47.686768
2018-07-28T11:20:40.350Z,47.644043
2018-07-28T11:21:56.272Z,47.644043
2018-07-28T11:23:12.185Z,47.045898
2018-07-28T11:24:28.156Z,45.568848
2018-07-28T11:25:44.045Z,43.19458
2018-07-28T11:26:59.965Z,45.568848
2018-07-28T11:28:15.919Z,45.446777
2018-07-28T11:29:31.879Z,43.566895
2018-07-28T11:30:47.845Z,44.854736
2018-07-28T11:32:03.876Z,45.245361
2018-07-28T11:33:19.813Z,44.65332
2018-07-28T11:34:35.739Z,44.65332
2018-07-28T11:35:51.684Z,42.852783
2018-07-28T11:37:07.646Z,44.360352
2018-07-28T11:38:23.540Z,45.227051
2018-07-28T11:39:39.503Z,43.64624
2018-07-28T11:40:55.562Z,43.054199
2018-07-28T11:42:11.549Z,42.340088
2018-07-28T11:43:27.462Z,43.450928
2018-07-28T11:44:43.379Z,45.245361
2018-07-28T11:45:59.463Z,45.959473
2018-07-28T11:47:15.304Z,45.544434
2018-07-28T11:48:31.233Z,43.963623
2018-07-28T11:49:48.182Z,43.768311
2018-07-28T11:51:04.163Z,43.64624
2018-07-28T11:52:20.101Z,43.64624
2018-07-28T11:53:36.002Z,43.939209
2018-07-28T11:54:51.933Z,44.854736
2018-07-28T11:56:07.847Z,45.349121
2018-07-28T11:57:24.752Z,44.854736
2018-07-28T11:58:40.713Z,45.245361
2018-07-28T11:59:56.647Z,45.465088
2018-07-28T12:01:12.567Z,47.711182
2018-07-28T12:02:28.513Z,48.205566
2018-07-28T12:03:44.421Z,48.22998
2018-07-28T12:05:00.329Z,48.425293
2018-07-28T12:06:16.386Z,48.822021
2018-07-28T12:07:32.370Z,48.425293
2018-07-28T12:08:48.281Z,48.22998
2018-07-28T12:10:04.206Z,48.10791
2018-07-28T12:11:20.151Z,48.602295
2018-07-28T12:12:36.158Z,48.010254
2018-07-28T12:13:51.984Z,47.686768
2018-07-28T12:15:07.876Z,48.083496
2018-07-28T12:16:23.785Z,48.10791
2018-07-28T12:17:39.723Z,48.699951
2018-07-28T12:18:55.622Z,48.797607
2018-07-28T12:20:11.566Z,48.181152
2018-07-28T12:21:27.539Z,48.083496
2018-07-28T12:22:43.457Z,47.98584
2018-07-28T12:23:59.423Z,48.083496
2018-07-28T12:25:15.308Z,48.480225
2018-07-28T12:26:31.264Z,48.480225
2018-07-28T12:27:47.169Z,48.577881
2018-07-28T12:29:03.106Z,48.773193
2018-07-28T12:30:19.049Z,49.072266
2018-07-28T12:31:35.002Z,49.395752
2018-07-28T12:32:50.945Z,49.468994
2018-07-28T12:34:06.849Z,49.371338
2018-07-28T12:35:22.773Z,49.468994
2018-07-28T12:36:38.682Z,49.56665
2018-07-28T12:37:54.608Z,49.768066
2018-07-28T12:39:10.569Z,50.061035
2018-07-28T12:40:26.499Z,50.579834
2018-07-28T12:41:42.417Z,50.604248
2018-07-28T12:42:58.348Z,51.098633
2018-07-28T12:44:14.395Z,51.275635
2018-07-28T12:45:30.290Z,51.470947
2018-07-28T12:46:46.190Z,52.093506
2018-07-28T12:48:02.110Z,52.490234
2018-07-28T12:49:18.271Z,52.587891
2018-07-28T12:50:35.329Z,51.794434
2018-07-28T12:51:51.819Z,51.89209
2018-07-28T12:53:07.750Z,51.324463
2018-07-28T12:54:23.685Z,51.721191
2018-07-28T12:55:39.660Z,51.818848
2018-07-28T12:56:55.594Z,51.916504
2018-07-28T12:58:11.547Z,52.020264
2018-07-28T12:59:27.524Z,52.612305
2018-07-28T13:00:43.487Z,52.838135
2018-07-28T13:01:59.416Z,52.441406
2018-07-28T13:03:15.345Z,52.539062
2018-07-28T13:04:31.302Z,52.142334
2018-07-28T13:05:47.249Z,52.441406
2018-07-28T13:07:03.179Z,53.033447
2018-07-28T13:08:19.104Z,53.033447
2018-07-28T13:09:35.104Z,52.734375
2018-07-28T13:10:51.033Z,53.527832
2018-07-28T13:12:06.987Z,53.33252
2018-07-28T13:13:22.923Z,52.935791
2018-07-28T13:14:38.883Z,53.234863
2018-07-28T13:15:54.795Z,52.709961
2018-07-28T13:17:10.789Z,51.647949
2018-07-28T13:18:26.646Z,51.251221
2018-07-28T13:19:42.577Z,50.830078
2018-07-28T13:20:58.504Z,50.20752
2018-07-28T13:22:14.449Z,49.835205
2018-07-28T13:23:30.482Z,50.134277
2018-07-28T13:24:46.396Z,50.012207
2018-07-28T13:26:02.333Z,49.615479
2018-07-28T13:27:18.260Z,49.316406
2018-07-28T13:28:34.141Z,49.517822
2018-07-28T13:29:50.231Z,48.724365
2018-07-28T13:31:06.184Z,48.724365
2018-07-28T13:32:22.111Z,48.822021
2018-07-28T13:33:38.050Z,48.504639
2018-07-28T13:34:53.938Z,48.205566
2018-07-28T13:36:09.914Z,48.504639
2018-07-28T13:37:25.830Z,48.504639
2018-07-28T13:38:41.871Z,48.699951
2018-07-28T13:39:58.114Z,49.194336
2018-07-28T13:41:14.068Z,48.425293
2018-07-28T13:42:29.992Z,49.420166
2018-07-28T13:43:45.889Z,49.194336
2018-07-28T13:45:01.770Z,48.876953
2018-07-28T13:46:17.701Z,48.773193
2018-07-28T13:47:33.664Z,48.675537
2018-07-28T13:48:49.602Z,48.675537
2018-07-28T13:50:05.539Z,48.651123
2018-07-28T13:51:21.493Z,48.754883
2018-07-28T13:52:37.466Z,48.358154
2018-07-28T13:53:53.367Z,48.577881
2018-07-28T13:55:09.279Z,48.577881
2018-07-28T13:56:25.174Z,48.602295
2018-07-28T13:57:41.135Z,48.504639
2018-07-28T13:58:57.087Z,48.773193
2018-07-28T14:00:13.073Z,48.699951
2018-07-28T14:01:28.940Z,49.938965
2018-07-28T14:02:44.924Z,50.036621
2018-07-28T14:04:00.812Z,50.231934
2018-07-28T14:05:16.783Z,50.335693
2018-07-28T14:06:32.727Z,50.628662
2018-07-28T14:07:48.697Z,51.049805
2018-07-28T14:09:06.565Z,51.348877
2018-07-28T14:10:22.510Z,51.544189
2018-07-28T14:11:38.477Z,51.544189
2018-07-28T14:12:54.427Z,51.324463
2018-07-28T14:14:10.596Z,51.025391
2018-07-28T14:17:07.047Z,51.446533
2018-07-28T14:18:23.116Z,51.446533
2018-07-28T14:19:38.903Z,51.647949
2018-07-28T14:20:54.805Z,52.142334
2018-07-28T14:22:10.746Z,52.368164
2018-07-28T14:23:26.711Z,52.46582
2018-07-28T14:24:42.668Z,52.264404
2018-07-28T14:25:58.562Z,51.99585
2018-07-28T14:27:14.458Z,52.191162
2018-07-28T14:28:30.443Z,51.971436
2018-07-28T14:29:46.476Z,51.77002
2018-07-28T14:31:02.387Z,51.867676
2018-07-28T14:32:18.321Z,51.647949
2018-07-28T14:33:34.267Z,51.544189
2018-07-28T14:34:50.209Z,51.672363
2018-07-28T14:36:06.138Z,50.854492
2018-07-28T14:37:22.053Z,50.653076
2018-07-28T14:38:37.915Z,50.256348
2018-07-28T14:39:53.842Z,50.061035